Rechercher aéroport 
image banner adimage banner adimage banner ad
image banner ad

PS91 - Conemaugh Valley Memorial Hospital

Situé à Johnstown, United States

ICAO - PS91, IATA -

Données fournies par Airmate  

Information générale

Coordonnées: N40°18'20" W78°55'5"
Élévation : 1250 feet MSL.
Variation magnétique : -08° East
Voir autres Aéroports à Pennsylvania

Données opérationnelles

Special qualification required
Heure actuelle UTC:
Heure actuelle locale:
METAR: KJST 152254Z AUTO 31005KT 10SM SCT037 19/11 A2992 RMK AO2 RAE09 SLP124 P0000 T01890111
TAF: KJST 152106Z 1521/1618 31008KT P6SM VCSH BKN050 BKN090 FM160000 31008KT P6SM SCT090 FM160600 30005KT P6SM SKC FM161500 32010KT P6SM SKC
Voir NOTAMs / SUP AIP / TFR affectant cet aéroport [VIEW]
Fréquences de communication: [VIEW]

Pistes:

Coordonnées de l'aéroport

Adresse: Johnstown United States

Vue satellite de PS91